sensor_id;sensor_type;location;lat;lon;timestamp;P1;durP1;ratioP1;P2;durP2;ratioP2
69463;SDS011;56665;41.106;16.688;2022-12-18T00:01:03;4.97;;;2.83;;
69463;SDS011;56665;41.106;16.688;2022-12-18T00:04:22;5.40;;;2.80;;
69463;SDS011;56665;41.106;16.688;2022-12-18T00:07:27;5.15;;;2.70;;
69463;SDS011;56665;41.106;16.688;2022-12-18T00:10:31;6.78;;;3.13;;
69463;SDS011;56665;41.106;16.688;2022-12-18T00:13:36;8.50;;;2.87;;
69463;SDS011;56665;41.106;16.688;2022-12-18T00:16:42;6.35;;;3.03;;
69463;SDS011;56665;41.106;16.688;2022-12-18T00:19:47;8.40;;;3.10;;
69463;SDS011;56665;41.106;16.688;2022-12-18T00:22:52;5.78;;;2.90;;
69463;SDS011;56665;41.106;16.688;2022-12-18T00:26:06;6.85;;;3.00;;
69463;SDS011;56665;41.106;16.688;2022-12-18T00:29:13;5.83;;;3.10;;
69463;SDS011;56665;41.106;16.688;2022-12-18T00:32:21;6.72;;;3.30;;
69463;SDS011;56665;41.106;16.688;2022-12-18T00:35:25;7.13;;;3.83;;
69463;SDS011;56665;41.106;16.688;2022-12-18T00:38:30;8.85;;;3.80;;
69463;SDS011;56665;41.106;16.688;2022-12-18T00:41:34;10.07;;;4.45;;
69463;SDS011;56665;41.106;16.688;2022-12-18T00:44:56;7.73;;;4.73;;
69463;SDS011;56665;41.106;16.688;2022-12-18T00:48:03;9.55;;;4.20;;
69463;SDS011;56665;41.106;16.688;2022-12-18T00:51:08;8.45;;;4.78;;
69463;SDS011;56665;41.106;16.688;2022-12-18T00:54:12;8.85;;;4.00;;
69463;SDS011;56665;41.106;16.688;2022-12-18T00:57:16;6.70;;;4.20;;
69463;SDS011;56665;41.106;16.688;2022-12-18T01:00:20;9.60;;;4.73;;
69463;SDS011;56665;41.106;16.688;2022-12-18T01:03:25;8.00;;;4.50;;
69463;SDS011;56665;41.106;16.688;2022-12-18T01:06:30;9.07;;;4.53;;
69463;SDS011;56665;41.106;16.688;2022-12-18T01:09:34;9.02;;;4.20;;
69463;SDS011;56665;41.106;16.688;2022-12-18T01:12:37;8.93;;;4.30;;
69463;SDS011;56665;41.106;16.688;2022-12-18T01:15:47;10.37;;;5.00;;
69463;SDS011;56665;41.106;16.688;2022-12-18T01:18:53;9.77;;;5.05;;
69463;SDS011;56665;41.106;16.688;2022-12-18T01:22:00;10.95;;;4.90;;
69463;SDS011;56665;41.106;16.688;2022-12-18T01:25:07;8.35;;;4.80;;
69463;SDS011;56665;41.106;16.688;2022-12-18T01:28:11;11.55;;;4.97;;
69463;SDS011;56665;41.106;16.688;2022-12-18T01:31:20;10.47;;;5.93;;
69463;SDS011;56665;41.106;16.688;2022-12-18T01:34:26;10.52;;;6.20;;
69463;SDS011;56665;41.106;16.688;2022-12-18T01:37:29;12.80;;;6.78;;
69463;SDS011;56665;41.106;16.688;2022-12-18T01:40:36;12.15;;;6.78;;
69463;SDS011;56665;41.106;16.688;2022-12-18T01:43:45;14.18;;;7.32;;
69463;SDS011;56665;41.106;16.688;2022-12-18T01:47:00;19.17;;;7.83;;
69463;SDS011;56665;41.106;16.688;2022-12-18T01:53:33;18.13;;;8.50;;
69463;SDS011;56665;41.106;16.688;2022-12-18T01:56:38;16.55;;;8.07;;
69463;SDS011;56665;41.106;16.688;2022-12-18T01:59:42;18.52;;;9.30;;
69463;SDS011;56665;41.106;16.688;2022-12-18T02:02:49;19.27;;;8.50;;
69463;SDS011;56665;41.106;16.688;2022-12-18T02:09:26;17.48;;;9.07;;
69463;SDS011;56665;41.106;16.688;2022-12-18T02:26:50;17.98;;;7.63;;
69463;SDS011;56665;41.106;16.688;2022-12-18T02:30:18;14.05;;;7.05;;
69463;SDS011;56665;41.106;16.688;2022-12-18T02:33:27;14.40;;;7.43;;
69463;SDS011;56665;41.106;16.688;2022-12-18T02:36:32;13.77;;;7.20;;
69463;SDS011;56665;41.106;16.688;2022-12-18T02:39:38;14.20;;;7.05;;
69463;SDS011;56665;41.106;16.688;2022-12-18T02:42:46;12.40;;;6.95;;
69463;SDS011;56665;41.106;16.688;2022-12-18T02:45:58;14.05;;;7.18;;
69463;SDS011;56665;41.106;16.688;2022-12-18T02:49:12;13.98;;;6.57;;
69463;SDS011;56665;41.106;16.688;2022-12-18T02:56:21;13.43;;;6.95;;
69463;SDS011;56665;41.106;16.688;2022-12-18T03:03:19;15.02;;;7.10;;
69463;SDS011;56665;41.106;16.688;2022-12-18T03:06:36;14.68;;;7.07;;
69463;SDS011;56665;41.106;16.688;2022-12-18T03:09:46;11.50;;;6.40;;
69463;SDS011;56665;41.106;16.688;2022-12-18T03:12:57;12.10;;;6.72;;
69463;SDS011;56665;41.106;16.688;2022-12-18T03:16:10;11.40;;;5.97;;
69463;SDS011;56665;41.106;16.688;2022-12-18T03:19:16;10.30;;;6.40;;
69463;SDS011;56665;41.106;16.688;2022-12-18T03:22:32;10.98;;;6.10;;
69463;SDS011;56665;41.106;16.688;2022-12-18T03:25:38;12.67;;;7.57;;
69463;SDS011;56665;41.106;16.688;2022-12-18T03:28:50;58.53;;;33.95;;
69463;SDS011;56665;41.106;16.688;2022-12-18T03:32:10;85.70;;;42.50;;
69463;SDS011;56665;41.106;16.688;2022-12-18T03:35:21;117.68;;;63.55;;
69463;SDS011;56665;41.106;16.688;2022-12-18T03:38:29;147.98;;;88.47;;
69463;SDS011;56665;41.106;16.688;2022-12-18T03:41:43;189.83;;;118.87;;
69463;SDS011;56665;41.106;16.688;2022-12-18T03:51:49;205.02;;;129.88;;
69463;SDS011;56665;41.106;16.688;2022-12-18T03:55:08;154.88;;;100.82;;
69463;SDS011;56665;41.106;16.688;2022-12-18T03:58:18;176.03;;;109.27;;
69463;SDS011;56665;41.106;16.688;2022-12-18T04:01:46;147.93;;;96.47;;
69463;SDS011;56665;41.106;16.688;2022-12-18T04:04:55;150.55;;;97.65;;
69463;SDS011;56665;41.106;16.688;2022-12-18T04:08:04;156.80;;;101.57;;
69463;SDS011;56665;41.106;16.688;2022-12-18T04:11:13;149.68;;;93.90;;
69463;SDS011;56665;41.106;16.688;2022-12-18T04:14:17;129.30;;;76.97;;
69463;SDS011;56665;41.106;16.688;2022-12-18T04:17:24;117.00;;;71.47;;
69463;SDS011;56665;41.106;16.688;2022-12-18T04:20:29;93.40;;;54.30;;
69463;SDS011;56665;41.106;16.688;2022-12-18T04:23:33;105.97;;;66.32;;
69463;SDS011;56665;41.106;16.688;2022-12-18T04:26:42;109.40;;;70.35;;
69463;SDS011;56665;41.106;16.688;2022-12-18T04:30:00;50.87;;;32.07;;
69463;SDS011;56665;41.106;16.688;2022-12-18T04:33:08;41.95;;;24.55;;
69463;SDS011;56665;41.106;16.688;2022-12-18T04:36:15;26.35;;;15.20;;
69463;SDS011;56665;41.106;16.688;2022-12-18T04:39:23;17.50;;;11.80;;
69463;SDS011;56665;41.106;16.688;2022-12-18T04:42:30;13.50;;;8.10;;
69463;SDS011;56665;41.106;16.688;2022-12-18T04:45:34;10.73;;;6.63;;
69463;SDS011;56665;41.106;16.688;2022-12-18T04:48:41;10.93;;;5.93;;
69463;SDS011;56665;41.106;16.688;2022-12-18T04:51:45;11.88;;;7.30;;
69463;SDS011;56665;41.106;16.688;2022-12-18T04:54:49;13.77;;;7.40;;
69463;SDS011;56665;41.106;16.688;2022-12-18T04:57:52;12.30;;;6.30;;
69463;SDS011;56665;41.106;16.688;2022-12-18T05:00:56;10.73;;;6.80;;
69463;SDS011;56665;41.106;16.688;2022-12-18T05:04:01;9.10;;;5.40;;
69463;SDS011;56665;41.106;16.688;2022-12-18T05:07:06;10.32;;;5.20;;
69463;SDS011;56665;41.106;16.688;2022-12-18T05:10:12;10.20;;;5.22;;
69463;SDS011;56665;41.106;16.688;2022-12-18T05:13:16;10.50;;;5.03;;
69463;SDS011;56665;41.106;16.688;2022-12-18T05:16:21;9.40;;;4.80;;
69463;SDS011;56665;41.106;16.688;2022-12-18T05:19:26;9.52;;;4.40;;
69463;SDS011;56665;41.106;16.688;2022-12-18T05:22:32;8.05;;;3.90;;
69463;SDS011;56665;41.106;16.688;2022-12-18T05:25:37;8.88;;;3.70;;
69463;SDS011;56665;41.106;16.688;2022-12-18T05:28:40;9.50;;;3.75;;
69463;SDS011;56665;41.106;16.688;2022-12-18T05:31:44;9.13;;;4.10;;
69463;SDS011;56665;41.106;16.688;2022-12-18T05:34:51;10.18;;;4.05;;
69463;SDS011;56665;41.106;16.688;2022-12-18T05:37:54;7.65;;;3.72;;
69463;SDS011;56665;41.106;16.688;2022-12-18T05:40:58;8.18;;;3.53;;
69463;SDS011;56665;41.106;16.688;2022-12-18T05:44:03;8.30;;;3.63;;
69463;SDS011;56665;41.106;16.688;2022-12-18T05:47:07;7.67;;;3.20;;
69463;SDS011;56665;41.106;16.688;2022-12-18T05:50:11;5.70;;;3.33;;
69463;SDS011;56665;41.106;16.688;2022-12-18T05:53:15;6.18;;;3.50;;
69463;SDS011;56665;41.106;16.688;2022-12-18T05:56:21;8.60;;;3.80;;
69463;SDS011;56665;41.106;16.688;2022-12-18T05:59:28;7.40;;;3.72;;
69463;SDS011;56665;41.106;16.688;2022-12-18T06:02:34;8.33;;;3.20;;
69463;SDS011;56665;41.106;16.688;2022-12-18T06:05:38;4.97;;;3.22;;
69463;SDS011;56665;41.106;16.688;2022-12-18T06:08:45;6.25;;;2.80;;
69463;SDS011;56665;41.106;16.688;2022-12-18T06:11:50;7.25;;;3.13;;
69463;SDS011;56665;41.106;16.688;2022-12-18T06:14:54;7.28;;;2.83;;
69463;SDS011;56665;41.106;16.688;2022-12-18T06:18:00;6.03;;;2.93;;
69463;SDS011;56665;41.106;16.688;2022-12-18T06:21:04;4.95;;;2.85;;
69463;SDS011;56665;41.106;16.688;2022-12-18T06:24:11;6.38;;;3.58;;
69463;SDS011;56665;41.106;16.688;2022-12-18T06:27:17;7.72;;;3.55;;
69463;SDS011;56665;41.106;16.688;2022-12-18T06:30:22;5.53;;;3.10;;
69463;SDS011;56665;41.106;16.688;2022-12-18T06:33:27;7.93;;;3.33;;
69463;SDS011;56665;41.106;16.688;2022-12-18T06:36:33;6.03;;;3.55;;
69463;SDS011;56665;41.106;16.688;2022-12-18T06:39:38;11.07;;;5.53;;
69463;SDS011;56665;41.106;16.688;2022-12-18T06:42:42;15.45;;;8.70;;
69463;SDS011;56665;41.106;16.688;2022-12-18T06:45:46;22.02;;;12.45;;
69463;SDS011;56665;41.106;16.688;2022-12-18T06:48:55;24.10;;;12.67;;
69463;SDS011;56665;41.106;16.688;2022-12-18T06:51:59;22.40;;;12.13;;
69463;SDS011;56665;41.106;16.688;2022-12-18T06:55:04;27.48;;;15.98;;
69463;SDS011;56665;41.106;16.688;2022-12-18T06:58:08;27.92;;;14.95;;
69463;SDS011;56665;41.106;16.688;2022-12-18T07:01:14;34.03;;;19.45;;
69463;SDS011;56665;41.106;16.688;2022-12-18T07:04:18;37.00;;;21.73;;
69463;SDS011;56665;41.106;16.688;2022-12-18T07:07:21;40.78;;;23.40;;
69463;SDS011;56665;41.106;16.688;2022-12-18T07:10:26;45.67;;;25.85;;
69463;SDS011;56665;41.106;16.688;2022-12-18T07:13:33;43.25;;;24.67;;
69463;SDS011;56665;41.106;16.688;2022-12-18T07:16:37;38.05;;;23.38;;
69463;SDS011;56665;41.106;16.688;2022-12-18T07:19:41;44.83;;;24.57;;
69463;SDS011;56665;41.106;16.688;2022-12-18T07:22:47;41.50;;;22.60;;
69463;SDS011;56665;41.106;16.688;2022-12-18T07:25:51;37.63;;;21.52;;
69463;SDS011;56665;41.106;16.688;2022-12-18T07:28:55;40.10;;;22.75;;
69463;SDS011;56665;41.106;16.688;2022-12-18T07:32:01;38.40;;;22.73;;
69463;SDS011;56665;41.106;16.688;2022-12-18T07:35:06;31.27;;;17.57;;
69463;SDS011;56665;41.106;16.688;2022-12-18T07:38:10;30.75;;;15.93;;
69463;SDS011;56665;41.106;16.688;2022-12-18T07:41:14;21.38;;;12.80;;
69463;SDS011;56665;41.106;16.688;2022-12-18T07:44:19;18.15;;;10.13;;
69463;SDS011;56665;41.106;16.688;2022-12-18T07:47:26;16.17;;;8.32;;
69463;SDS011;56665;41.106;16.688;2022-12-18T07:50:32;14.03;;;8.13;;
69463;SDS011;56665;41.106;16.688;2022-12-18T07:53:36;16.48;;;9.82;;
69463;SDS011;56665;41.106;16.688;2022-12-18T07:56:44;29.70;;;15.23;;
69463;SDS011;56665;41.106;16.688;2022-12-18T07:59:48;32.53;;;16.92;;
69463;SDS011;56665;41.106;16.688;2022-12-18T08:02:55;24.02;;;13.35;;
69463;SDS011;56665;41.106;16.688;2022-12-18T08:06:00;19.43;;;11.17;;
69463;SDS011;56665;41.106;16.688;2022-12-18T08:09:09;15.18;;;9.23;;
69463;SDS011;56665;41.106;16.688;2022-12-18T08:12:13;17.35;;;10.18;;
69463;SDS011;56665;41.106;16.688;2022-12-18T08:15:17;16.38;;;9.23;;
69463;SDS011;56665;41.106;16.688;2022-12-18T08:18:21;15.45;;;8.98;;
69463;SDS011;56665;41.106;16.688;2022-12-18T08:21:27;20.57;;;10.03;;
69463;SDS011;56665;41.106;16.688;2022-12-18T08:24:33;13.02;;;7.50;;
69463;SDS011;56665;41.106;16.688;2022-12-18T08:27:38;14.10;;;7.30;;
69463;SDS011;56665;41.106;16.688;2022-12-18T08:30:41;13.90;;;7.70;;
69463;SDS011;56665;41.106;16.688;2022-12-18T08:33:47;14.10;;;8.15;;
69463;SDS011;56665;41.106;16.688;2022-12-18T08:36:52;13.43;;;8.27;;
69463;SDS011;56665;41.106;16.688;2022-12-18T08:39:56;17.55;;;8.70;;
69463;SDS011;56665;41.106;16.688;2022-12-18T08:43:00;18.50;;;10.30;;
69463;SDS011;56665;41.106;16.688;2022-12-18T08:46:24;16.05;;;8.00;;
69463;SDS011;56665;41.106;16.688;2022-12-18T08:49:30;15.13;;;7.45;;
69463;SDS011;56665;41.106;16.688;2022-12-18T08:52:35;11.63;;;7.50;;
69463;SDS011;56665;41.106;16.688;2022-12-18T08:55:40;10.93;;;5.78;;
69463;SDS011;56665;41.106;16.688;2022-12-18T08:58:44;12.00;;;6.80;;
69463;SDS011;56665;41.106;16.688;2022-12-18T09:01:49;12.70;;;7.03;;
69463;SDS011;56665;41.106;16.688;2022-12-18T09:04:53;10.57;;;7.22;;
69463;SDS011;56665;41.106;16.688;2022-12-18T09:07:57;14.63;;;7.50;;
69463;SDS011;56665;41.106;16.688;2022-12-18T09:11:02;12.93;;;7.82;;
69463;SDS011;56665;41.106;16.688;2022-12-18T09:14:06;12.50;;;7.05;;
69463;SDS011;56665;41.106;16.688;2022-12-18T09:17:10;11.02;;;6.65;;
69463;SDS011;56665;41.106;16.688;2022-12-18T09:20:13;11.90;;;6.60;;
69463;SDS011;56665;41.106;16.688;2022-12-18T09:23:17;12.80;;;7.40;;
69463;SDS011;56665;41.106;16.688;2022-12-18T09:26:25;10.10;;;7.15;;
69463;SDS011;56665;41.106;16.688;2022-12-18T09:29:29;11.23;;;6.43;;
69463;SDS011;56665;41.106;16.688;2022-12-18T09:32:35;9.52;;;6.38;;
69463;SDS011;56665;41.106;16.688;2022-12-18T09:35:40;13.13;;;5.88;;
69463;SDS011;56665;41.106;16.688;2022-12-18T09:38:45;12.50;;;6.00;;
69463;SDS011;56665;41.106;16.688;2022-12-18T09:41:52;7.53;;;5.03;;
69463;SDS011;56665;41.106;16.688;2022-12-18T09:44:58;13.00;;;7.55;;
69463;SDS011;56665;41.106;16.688;2022-12-18T09:48:05;11.48;;;5.72;;
69463;SDS011;56665;41.106;16.688;2022-12-18T09:55:03;8.30;;;4.97;;
69463;SDS011;56665;41.106;16.688;2022-12-18T09:58:22;10.05;;;5.75;;
69463;SDS011;56665;41.106;16.688;2022-12-18T10:01:40;12.98;;;7.40;;
69463;SDS011;56665;41.106;16.688;2022-12-18T10:04:45;11.25;;;6.70;;
69463;SDS011;56665;41.106;16.688;2022-12-18T10:28:41;8.33;;;4.50;;
69463;SDS011;56665;41.106;16.688;2022-12-18T10:31:50;10.05;;;4.85;;
69463;SDS011;56665;41.106;16.688;2022-12-18T10:34:55;9.77;;;5.03;;
69463;SDS011;56665;41.106;16.688;2022-12-18T10:38:01;8.43;;;4.75;;
69463;SDS011;56665;41.106;16.688;2022-12-18T10:41:06;9.50;;;4.30;;
69463;SDS011;56665;41.106;16.688;2022-12-18T10:44:29;5.67;;;3.20;;
69463;SDS011;56665;41.106;16.688;2022-12-18T10:47:33;6.82;;;3.13;;
69463;SDS011;56665;41.106;16.688;2022-12-18T10:50:38;8.13;;;3.47;;
69463;SDS011;56665;41.106;16.688;2022-12-18T10:53:44;6.80;;;3.25;;
69463;SDS011;56665;41.106;16.688;2022-12-18T10:57:16;5.15;;;3.00;;
69463;SDS011;56665;41.106;16.688;2022-12-18T11:00:33;6.03;;;3.43;;
69463;SDS011;56665;41.106;16.688;2022-12-18T11:03:41;8.40;;;3.97;;
69463;SDS011;56665;41.106;16.688;2022-12-18T11:07:01;8.02;;;3.60;;
69463;SDS011;56665;41.106;16.688;2022-12-18T11:10:15;6.68;;;3.67;;
69463;SDS011;56665;41.106;16.688;2022-12-18T11:13:24;6.13;;;3.55;;
69463;SDS011;56665;41.106;16.688;2022-12-18T11:16:33;7.27;;;3.57;;
69463;SDS011;56665;41.106;16.688;2022-12-18T11:19:39;6.38;;;3.38;;
69463;SDS011;56665;41.106;16.688;2022-12-18T11:22:45;8.50;;;3.70;;
69463;SDS011;56665;41.106;16.688;2022-12-18T11:26:05;10.88;;;4.00;;
69463;SDS011;56665;41.106;16.688;2022-12-18T11:29:10;7.60;;;4.03;;
69463;SDS011;56665;41.106;16.688;2022-12-18T11:32:29;10.47;;;4.87;;
69463;SDS011;56665;41.106;16.688;2022-12-18T11:38:42;9.40;;;4.30;;
69463;SDS011;56665;41.106;16.688;2022-12-18T11:49:17;11.80;;;4.97;;
69463;SDS011;56665;41.106;16.688;2022-12-18T11:52:38;8.15;;;3.95;;
69463;SDS011;56665;41.106;16.688;2022-12-18T11:59:47;6.82;;;3.75;;
69463;SDS011;56665;41.106;16.688;2022-12-18T12:09:45;9.82;;;3.80;;
69463;SDS011;56665;41.106;16.688;2022-12-18T12:13:04;9.70;;;4.22;;
69463;SDS011;56665;41.106;16.688;2022-12-18T12:20:10;7.05;;;3.97;;
69463;SDS011;56665;41.106;16.688;2022-12-18T12:30:10;9.70;;;3.10;;
69463;SDS011;56665;41.106;16.688;2022-12-18T12:33:39;4.47;;;2.40;;
69463;SDS011;56665;41.106;16.688;2022-12-18T12:40:44;8.17;;;3.00;;
69463;SDS011;56665;41.106;16.688;2022-12-18T12:43:56;8.27;;;3.50;;
69463;SDS011;56665;41.106;16.688;2022-12-18T12:47:04;7.43;;;3.35;;
69463;SDS011;56665;41.106;16.688;2022-12-18T12:50:16;7.93;;;2.92;;
69463;SDS011;56665;41.106;16.688;2022-12-18T12:53:34;8.45;;;3.45;;
69463;SDS011;56665;41.106;16.688;2022-12-18T13:00:06;9.00;;;3.55;;
69463;SDS011;56665;41.106;16.688;2022-12-18T13:03:28;11.05;;;3.97;;
69463;SDS011;56665;41.106;16.688;2022-12-18T13:08:21;6.70;;;3.03;;
69463;SDS011;56665;41.106;16.688;2022-12-18T13:11:26;11.68;;;3.30;;
69463;SDS011;56665;41.106;16.688;2022-12-18T13:15:11;11.73;;;3.50;;
69463;SDS011;56665;41.106;16.688;2022-12-18T13:18:24;6.80;;;2.45;;
69463;SDS011;56665;41.106;16.688;2022-12-18T13:21:29;6.53;;;2.50;;
69463;SDS011;56665;41.106;16.688;2022-12-18T13:24:38;10.00;;;3.65;;
69463;SDS011;56665;41.106;16.688;2022-12-18T13:30:51;8.33;;;3.23;;
69463;SDS011;56665;41.106;16.688;2022-12-18T13:34:11;9.10;;;2.92;;
69463;SDS011;56665;41.106;16.688;2022-12-18T13:41:04;10.45;;;3.30;;
69463;SDS011;56665;41.106;16.688;2022-12-18T13:44:30;10.88;;;3.55;;
69463;SDS011;56665;41.106;16.688;2022-12-18T13:47:43;6.97;;;3.07;;
69463;SDS011;56665;41.106;16.688;2022-12-18T13:51:20;7.20;;;2.70;;
69463;SDS011;56665;41.106;16.688;2022-12-18T13:57:41;9.00;;;3.22;;
69463;SDS011;56665;41.106;16.688;2022-12-18T14:00:44;7.70;;;2.92;;
69463;SDS011;56665;41.106;16.688;2022-12-18T14:03:48;6.57;;;2.90;;
69463;SDS011;56665;41.106;16.688;2022-12-18T14:07:03;8.50;;;3.63;;
69463;SDS011;56665;41.106;16.688;2022-12-18T14:10:11;6.82;;;2.65;;
69463;SDS011;56665;41.106;16.688;2022-12-18T14:13:29;8.98;;;3.28;;
69463;SDS011;56665;41.106;16.688;2022-12-18T14:16:35;6.28;;;2.42;;
69463;SDS011;56665;41.106;16.688;2022-12-18T14:19:49;9.47;;;2.83;;
69463;SDS011;56665;41.106;16.688;2022-12-18T14:22:54;4.75;;;2.30;;
69463;SDS011;56665;41.106;16.688;2022-12-18T14:26:00;7.55;;;2.65;;
69463;SDS011;56665;41.106;16.688;2022-12-18T14:29:26;7.15;;;2.08;;
69463;SDS011;56665;41.106;16.688;2022-12-18T14:32:31;7.35;;;3.03;;
69463;SDS011;56665;41.106;16.688;2022-12-18T14:35:37;8.67;;;2.70;;
69463;SDS011;56665;41.106;16.688;2022-12-18T14:38:42;7.32;;;2.95;;
69463;SDS011;56665;41.106;16.688;2022-12-18T14:41:50;6.00;;;2.50;;
69463;SDS011;56665;41.106;16.688;2022-12-18T14:48:41;7.40;;;2.45;;
69463;SDS011;56665;41.106;16.688;2022-12-18T14:51:50;8.17;;;2.50;;
69463;SDS011;56665;41.106;16.688;2022-12-18T14:54:58;7.10;;;2.90;;
69463;SDS011;56665;41.106;16.688;2022-12-18T14:58:02;7.20;;;2.70;;
69463;SDS011;56665;41.106;16.688;2022-12-18T15:01:06;6.75;;;2.83;;
69463;SDS011;56665;41.106;16.688;2022-12-18T15:07:50;9.77;;;4.10;;
69463;SDS011;56665;41.106;16.688;2022-12-18T15:10:55;9.63;;;3.35;;
69463;SDS011;56665;41.106;16.688;2022-12-18T15:14:00;8.43;;;3.17;;
69463;SDS011;56665;41.106;16.688;2022-12-18T15:17:24;7.38;;;3.30;;
69463;SDS011;56665;41.106;16.688;2022-12-18T15:20:38;9.27;;;3.25;;
69463;SDS011;56665;41.106;16.688;2022-12-18T15:26:47;11.82;;;3.20;;
69463;SDS011;56665;41.106;16.688;2022-12-18T15:33:23;9.40;;;4.03;;
69463;SDS011;56665;41.106;16.688;2022-12-18T15:36:29;12.32;;;5.20;;
69463;SDS011;56665;41.106;16.688;2022-12-18T15:39:34;11.63;;;4.53;;
69463;SDS011;56665;41.106;16.688;2022-12-18T15:42:38;12.05;;;4.82;;
69463;SDS011;56665;41.106;16.688;2022-12-18T15:49:08;12.90;;;4.20;;
69463;SDS011;56665;41.106;16.688;2022-12-18T15:52:16;8.38;;;3.95;;
69463;SDS011;56665;41.106;16.688;2022-12-18T15:55:29;12.43;;;4.53;;
69463;SDS011;56665;41.106;16.688;2022-12-18T15:58:51;9.73;;;3.80;;
69463;SDS011;56665;41.106;16.688;2022-12-18T16:01:54;7.82;;;4.22;;
69463;SDS011;56665;41.106;16.688;2022-12-18T16:04:59;9.32;;;3.92;;
69463;SDS011;56665;41.106;16.688;2022-12-18T16:08:06;12.23;;;4.38;;
69463;SDS011;56665;41.106;16.688;2022-12-18T16:11:32;7.45;;;4.10;;
69463;SDS011;56665;41.106;16.688;2022-12-18T16:14:41;10.15;;;3.95;;
69463;SDS011;56665;41.106;16.688;2022-12-18T16:17:50;11.30;;;4.55;;
69463;SDS011;56665;41.106;16.688;2022-12-18T16:20:54;11.73;;;3.85;;
69463;SDS011;56665;41.106;16.688;2022-12-18T16:24:01;12.57;;;4.43;;
69463;SDS011;56665;41.106;16.688;2022-12-18T16:27:07;9.70;;;3.93;;
69463;SDS011;56665;41.106;16.688;2022-12-18T16:30:18;9.73;;;4.82;;
69463;SDS011;56665;41.106;16.688;2022-12-18T16:33:28;9.75;;;4.88;;
69463;SDS011;56665;41.106;16.688;2022-12-18T16:36:32;10.30;;;4.68;;
69463;SDS011;56665;41.106;16.688;2022-12-18T16:39:36;12.43;;;4.95;;
69463;SDS011;56665;41.106;16.688;2022-12-18T16:42:43;11.53;;;5.00;;
69463;SDS011;56665;41.106;16.688;2022-12-18T16:45:49;8.50;;;4.55;;
69463;SDS011;56665;41.106;16.688;2022-12-18T16:48:54;11.43;;;3.45;;
69463;SDS011;56665;41.106;16.688;2022-12-18T16:51:57;8.90;;;4.30;;
69463;SDS011;56665;41.106;16.688;2022-12-18T16:55:02;8.98;;;4.63;;
69463;SDS011;56665;41.106;16.688;2022-12-18T16:58:06;7.93;;;4.07;;
69463;SDS011;56665;41.106;16.688;2022-12-18T17:01:13;8.95;;;4.32;;
69463;SDS011;56665;41.106;16.688;2022-12-18T17:04:20;11.57;;;4.55;;
69463;SDS011;56665;41.106;16.688;2022-12-18T17:07:24;8.93;;;4.07;;
69463;SDS011;56665;41.106;16.688;2022-12-18T17:10:30;14.65;;;5.72;;
69463;SDS011;56665;41.106;16.688;2022-12-18T17:13:39;8.30;;;4.40;;
69463;SDS011;56665;41.106;16.688;2022-12-18T17:16:43;9.82;;;4.68;;
69463;SDS011;56665;41.106;16.688;2022-12-18T17:19:51;8.60;;;4.78;;
69463;SDS011;56665;41.106;16.688;2022-12-18T17:22:55;8.15;;;4.53;;
69463;SDS011;56665;41.106;16.688;2022-12-18T17:25:59;8.32;;;4.55;;
69463;SDS011;56665;41.106;16.688;2022-12-18T17:29:03;9.07;;;4.60;;
69463;SDS011;56665;41.106;16.688;2022-12-18T17:32:06;10.38;;;5.00;;
69463;SDS011;56665;41.106;16.688;2022-12-18T17:35:13;10.45;;;4.35;;
69463;SDS011;56665;41.106;16.688;2022-12-18T17:38:16;10.25;;;4.55;;
69463;SDS011;56665;41.106;16.688;2022-12-18T17:41:20;14.00;;;5.78;;
69463;SDS011;56665;41.106;16.688;2022-12-18T17:44:25;10.63;;;4.60;;
69463;SDS011;56665;41.106;16.688;2022-12-18T17:47:29;11.25;;;3.83;;
69463;SDS011;56665;41.106;16.688;2022-12-18T17:50:33;10.70;;;4.15;;
69463;SDS011;56665;41.106;16.688;2022-12-18T17:53:37;8.13;;;4.43;;
69463;SDS011;56665;41.106;16.688;2022-12-18T17:56:43;9.35;;;4.13;;
69463;SDS011;56665;41.106;16.688;2022-12-18T17:59:47;9.63;;;4.43;;
69463;SDS011;56665;41.106;16.688;2022-12-18T18:02:51;8.88;;;4.88;;
69463;SDS011;56665;41.106;16.688;2022-12-18T18:05:55;11.20;;;4.82;;
69463;SDS011;56665;41.106;16.688;2022-12-18T18:09:02;9.20;;;4.30;;
69463;SDS011;56665;41.106;16.688;2022-12-18T18:12:11;8.23;;;4.40;;
69463;SDS011;56665;41.106;16.688;2022-12-18T18:15:36;10.00;;;4.43;;
69463;SDS011;56665;41.106;16.688;2022-12-18T18:18:43;8.32;;;4.00;;
69463;SDS011;56665;41.106;16.688;2022-12-18T18:21:47;10.23;;;4.65;;
69463;SDS011;56665;41.106;16.688;2022-12-18T18:24:53;11.32;;;5.20;;
69463;SDS011;56665;41.106;16.688;2022-12-18T18:27:57;8.05;;;4.07;;
69463;SDS011;56665;41.106;16.688;2022-12-18T18:31:05;10.37;;;4.10;;
69463;SDS011;56665;41.106;16.688;2022-12-18T18:34:19;9.82;;;3.95;;
69463;SDS011;56665;41.106;16.688;2022-12-18T18:37:27;7.63;;;3.95;;
69463;SDS011;56665;41.106;16.688;2022-12-18T18:40:33;7.05;;;3.40;;
69463;SDS011;56665;41.106;16.688;2022-12-18T18:43:39;8.48;;;3.97;;
69463;SDS011;56665;41.106;16.688;2022-12-18T18:46:43;7.57;;;4.00;;
69463;SDS011;56665;41.106;16.688;2022-12-18T18:49:48;8.55;;;3.75;;
69463;SDS011;56665;41.106;16.688;2022-12-18T18:52:54;10.15;;;5.07;;
69463;SDS011;56665;41.106;16.688;2022-12-18T18:56:00;8.05;;;4.28;;
69463;SDS011;56665;41.106;16.688;2022-12-18T18:59:08;11.60;;;4.75;;
69463;SDS011;56665;41.106;16.688;2022-12-18T19:02:13;11.67;;;4.30;;
69463;SDS011;56665;41.106;16.688;2022-12-18T19:05:19;9.80;;;4.72;;
69463;SDS011;56665;41.106;16.688;2022-12-18T19:08:28;11.50;;;5.07;;
69463;SDS011;56665;41.106;16.688;2022-12-18T19:11:34;12.70;;;5.43;;
69463;SDS011;56665;41.106;16.688;2022-12-18T19:14:56;13.90;;;6.30;;
69463;SDS011;56665;41.106;16.688;2022-12-18T19:18:00;12.00;;;5.00;;
69463;SDS011;56665;41.106;16.688;2022-12-18T19:21:06;12.00;;;5.30;;
69463;SDS011;56665;41.106;16.688;2022-12-18T19:24:10;8.35;;;4.13;;
69463;SDS011;56665;41.106;16.688;2022-12-18T19:27:14;7.88;;;3.88;;
69463;SDS011;56665;41.106;16.688;2022-12-18T19:30:18;8.85;;;4.95;;
69463;SDS011;56665;41.106;16.688;2022-12-18T19:33:21;8.67;;;4.03;;
69463;SDS011;56665;41.106;16.688;2022-12-18T19:36:27;10.80;;;4.45;;
69463;SDS011;56665;41.106;16.688;2022-12-18T19:39:33;9.40;;;4.20;;
69463;SDS011;56665;41.106;16.688;2022-12-18T19:42:39;8.48;;;3.80;;
69463;SDS011;56665;41.106;16.688;2022-12-18T19:45:43;12.43;;;5.65;;
69463;SDS011;56665;41.106;16.688;2022-12-18T19:48:47;11.77;;;4.97;;
69463;SDS011;56665;41.106;16.688;2022-12-18T19:51:51;10.98;;;4.75;;
69463;SDS011;56665;41.106;16.688;2022-12-18T19:54:54;11.50;;;4.78;;
69463;SDS011;56665;41.106;16.688;2022-12-18T19:57:58;9.38;;;4.28;;
69463;SDS011;56665;41.106;16.688;2022-12-18T20:01:02;7.80;;;4.22;;
69463;SDS011;56665;41.106;16.688;2022-12-18T20:04:06;13.80;;;5.30;;
69463;SDS011;56665;41.106;16.688;2022-12-18T20:07:10;9.43;;;4.77;;
69463;SDS011;56665;41.106;16.688;2022-12-18T20:10:13;11.75;;;5.15;;
69463;SDS011;56665;41.106;16.688;2022-12-18T20:13:17;8.10;;;4.40;;
69463;SDS011;56665;41.106;16.688;2022-12-18T20:16:21;10.27;;;4.55;;
69463;SDS011;56665;41.106;16.688;2022-12-18T20:19:28;10.37;;;4.93;;
69463;SDS011;56665;41.106;16.688;2022-12-18T20:22:34;8.27;;;4.38;;
69463;SDS011;56665;41.106;16.688;2022-12-18T20:25:39;7.20;;;4.10;;
69463;SDS011;56665;41.106;16.688;2022-12-18T20:28:43;7.55;;;3.90;;
69463;SDS011;56665;41.106;16.688;2022-12-18T20:31:47;10.23;;;4.60;;